Aeroporto :
LOGIN :

Iscrizione | Disclaimer

   EN    FR    IT 

 










Sommario :    VFR   VFR Marginale   IFR   IFR Intensivo   IFR Molto Intensivo
Visibilità : 
Base nubi : 
>= 8 km
>= 3000ft
5 / 8 km
1000 / 3000 ft
1500m / 5 km
500 / 1000 ft
800 / 1500m
200 / 500 ft
< 800m
< 200 ft
Simboli :   Temporali  Nebbia  Neve Forte  Precipitazioni Forti  Vento > 20 kt
SIGMETs :   Varie  Temporali  Ghiacco  Turbolenza  Onda orograficha  Ceneri Vulcaniche






- Altitudine del aeroporto : 1548 ft


LKNA - Náměšť Air Base

ULTIMO METAR :
  • 171800Z 14012KT 0100 R13/0400 -FZDZ FZFG VV001 M03/M03 Q1022 NOSIG RMK RED RED

METARs OBSOLETI :
  • 171700Z 14012KT 0250 R13/0400 -FZDA FZFG VV001 M02/M03 Q1022 NOSIG
  • 171600Z 14013KT 0100 R13/0300N -FZDZ FZFG VV001 M03/M03 Q1022 NOSIG RMK RED RED

TAF TAF LKNA
Valido dal 17 a 18 ore il 18 a 18 ore UTC


171700Z 1718/1818 14008KT 0400 FZFG VV001
TEMPO 1718/1812 0800 -FZDZ OVC002
TEMPO 1721/1818 2000 SNRA BR BKN004 OVC008
BECMG 1814/1816 33007KT 6000 BKN015



MetMap, La meteo Aeronautica in un colpo d'occhio ! - Copyright ORBIFLY Dicembre 2007 - Disclaimer

ORBIFLY MET'MAP TEAM :

Programmazione e sviluppo : Alexandra Zaïnal
Concezione : Baudouin d'Aumeries
Aiuto per la programmazione : Marc-Olivier Méhu
Supporto tecnico e logistico : Manuel Goepfert
Aiuto per la traduzione : Arnaldo La Scala

Contatto : metmap@orbifly.com




FONTI E CREDITI :

   NOAA